Main page
METAR-TAF:

METAR-TAF

Airports :

Ibiza, Spain

Ibiza Airport

latitude: 38-52N, longitude: 001-23E, elevation: 7 m

Current weather observation

The report was made 26 minutes ago, at 07:00 UTC
Calm wind
Temperature 10°C
Humidity 93%
Pressure 1017 hPa
Visibility 10 km or more
Few clouds at a height of 3000 ft
Shallow fog

METAR: LEIB 220700Z 00000KT 9999 MIFG FEW030 10/09 Q1017 NOSIG

Time: 08:26 (07:26 UTC)

Forecast

The report was made 5 hours and 26 minutes ago, at 02:00 UTC
Forecast valid from 22 at 03 UTC to 23 at 03 UTC
Wind 6 kt from the South/Southwest
Visibility 10 km or more
Few clouds at a height of 1500 ft
Temporary
from 22 at 18 UTC to 23 at 03 UTC
Broken clouds at a height of 1000 ft
Probability 30% :
Temporary
from 22 at 18 UTC to 23 at 03 UTC
Visibility: 3000 m
Broken clouds at a height of 1000 ft
mist

TAF: LEIB 220200Z 2203/2303 20006KT 9999 FEW015 TX20/2212Z TN09/2206Z TEMPO 2218/2303 BKN010 PROB30 TEMPO 2218/2303 3000 BR BKN010

Weather observations and forecasts of more than 4000 airports (METAR and TAF reports).

The available stations are represented by yellow and red dots on the map.

Hover mouse over dot to see the name of the station.

Then click to see weather observations and forecasts.

To change the map : click on the green buttons with a black cross to zoom in, on the green button with a dash to zoom out, or on the green arrows for adjacent maps.


METAR-TAF: